Terminal Aerodrome Forecast
Issued by NWS Binghamton, NY

Home | Current Version | Previous Version | Text Only | Print | Product List | Glossary On
Versions: 1 2 3 4 5 6 7 8 9 10 11 12 13 14 15 16 17 18 19 20 21 22 23 24 25 26 27
000
FTUS41 KBGM 011356 AAA
TAFBGM
TAF AMD
KBGM 011356Z 0114/0212 11007KT 5SM BR OVC002
     FM011600 11006KT P6SM OVC011
     FM011900 12007KT P6SM -SHRA OVC015
     FM020200 14007KT 5SM -SHRA BKN008
     FM020400 14007KT 3SM BR BKN003=

USA.gov is the U.S. government's official web portal to all federal, state and local government web resources and services.